This is the latest recevied weather packets stored in our database for station/object BX2AEA-13. If no packets are shown the sender has not sent any weather packets the latest 10 day(s).
| Time | Temp. | Humidity | Pressure | Rain* | Wind** | Luminosity | Snow |
|---|---|---|---|---|---|---|---|
| 1777528976 | 29.44° C | 53% | 1008.5 hPa | 4.06 mm | - | - | - |
| 1777528629 | 29.44° C | 52% | 1008.7 hPa | 4.06 mm | - | - | - |
| 1777528283 | 29.44° C | 52% | 1008.6 hPa | 4.57 mm | - | - | - |
| 1777527936 | 29.44° C | 51% | 1008.6 hPa | 4.57 mm | - | - | - |
| 1777527588 | 29.44° C | 51% | 1008.6 hPa | 3.81 mm | - | - | - |
| 1777527241 | 30° C | 51% | 1008.6 hPa | 3.56 mm | - | - | - |
| 1777526895 | 30° C | 51% | 1008.9 hPa | 1.52 mm | - | - | - |
| 1777526547 | 30° C | 51% | 1009 hPa | 0.51 mm | - | - | - |
| 1777526200 | 30° C | 51% | 1008.9 hPa | 0.76 mm | - | - | - |
| 1777525853 | 30° C | 51% | 1008.9 hPa | 1.27 mm | - | - | - |
| 1777525506 | 30° C | 52% | 1008.9 hPa | 1.52 mm | - | - | - |
| 1777525159 | 30° C | 51% | 1009 hPa | 1.52 mm | - | - | - |
| 1777524812 | 30° C | 51% | 1009.1 hPa | 1.27 mm | - | - | - |
| 1777524465 | 30° C | 51% | 1009.2 hPa | 1.27 mm | - | - | - |
| 1777524118 | 30° C | 51% | 1009.1 hPa | 1.27 mm | - | - | - |
| 1777523771 | 30° C | 50% | 1009.4 hPa | 1.27 mm | - | - | - |
| 1777523424 | 30° C | 50% | 1009.3 hPa | 1.27 mm | - | - | - |
| 1777523077 | 30° C | 49% | 1009.5 hPa | 0.76 mm | - | - | - |
| 1777522730 | 30.56° C | 49% | 1009.6 hPa | 0.51 mm | - | - | - |
| 1777522383 | 30.56° C | 49% | 1009.7 hPa | 0.51 mm | - | - | - |
| 1777522036 | 30.56° C | 49% | 1009.7 hPa | 0.25 mm | - | - | - |
| 1777521689 | 30.56° C | 49% | 1009.7 hPa | 0 mm | - | - | - |
| 1777521342 | 30.56° C | 49% | 1009.7 hPa | 0 mm | - | - | - |
| 1777520995 | 30.56° C | 49% | 1009.8 hPa | 0.25 mm | - | - | - |
| 1777520648 | 30.56° C | 49% | 1009.8 hPa | 0.25 mm | - | - | - |
* Rain latest hour (hover to see other rain measurements)
** Current wind speed in m/s (hover to see current wind gust speed)